Aviation Digital Data Service (ADDS)

Output produced by METARs form (2255 UTC 20 January 2019)
found at http://www.aviationweather.gov/metar/data/
 
Forecast for: EBBR (BRUSSELS NATIONA, BE)
Text: TAF EBBR 201705Z 2018/2124 07003KT CAVOK
Forecast period: 1800 UTC 20 January 2019 to 0000 UTC 22 January 2019
Forecast type: FROM: standard forecast or significant change
Winds: from the ENE (70 degrees) at 3 MPH (3 knots; 1.5 m/s)
Visibility: 6 or more miles 10+ km)
Ceiling: unknown
Clouds: missing
Weather: NSW  (no significant weather)
Text: PROB30
Forecast period: 0200 to 1000 UTC 21 January 2019
Forecast type: TEMPORARY: The following changes expected for less than half the time period
Visibility: 1.24 miles (2.00 km)
Ceiling: unknown
Clouds: missing
Weather: MIFG  (shallow fog)